| time (UTC) | temp C | wind direction | speed KPH | gust KPH | rain 1hr cm | rain 24hr cm | rain mn cm | humidity % | barometer mb |
| 20260505114334 | 8 | 31 | 1.6 | 1.6 | 0.00 | 0.05 | 0.05 | 71 | 1008.0 |
| 20260505113830 | 8 | 31 | 1.6 | 1.6 | 0.00 | 0.05 | 0.05 | 71 | 1007.9 |
| 20260505113327 | 8 | 31 | 1.6 | 1.6 | 0.00 | 0.05 | 0.05 | 71 | 1008.0 |
| 20260505112822 | 8 | 30 | 0.0 | 0.0 | 0.00 | 0.05 | 0.05 | 71 | 1007.8 |
| 20260505112320 | 8 | 29 | 0.0 | 0.0 | 0.00 | 0.05 | 0.05 | 72 | 1007.8 |
| 20260505111816 | 8 | 29 | 0.0 | 0.0 | 0.00 | 0.05 | 0.05 | 72 | 1007.8 |
| 20260505111311 | 8 | 29 | 0.0 | 1.6 | 0.00 | 0.05 | 0.05 | 73 | 1007.8 |
| 20260505110807 | 8 | 28 | 0.0 | 0.0 | 0.00 | 0.05 | 0.05 | 74 | 1008.1 |
| 20260505110305 | 8 | 25 | 1.6 | 3.2 | 0.00 | 0.05 | 0.05 | 80 | 1008.0 |
| 20260505101739 | 8 | 31 | 0.0 | 0.0 | 0.00 | 0.05 | 0.05 | 86 | 1008.7 |
| 20260505101235 | -17 | 0.0 | 0.0 | 0.00 | 0.00 | 0.00 | 1008.6 | ||
| 20260505100732 | -17 | 0.0 | 0.0 | 0.00 | 0.00 | 0.00 | 1008.2 | ||
| 20260505100228 | -17 | 0.0 | 0.0 | 0.00 | 0.00 | 0.00 | 1008.3 | ||
| 20260505095724 | -17 | 0.0 | 0.0 | 0.00 | 0.00 | 0.00 | 1008.4 | ||
| 20260505095222 | -17 | 0.0 | 0.0 | 0.00 | 0.00 | 0.00 | 1008.4 | ||
| 20260505094718 | -17 | 0.0 | 0.0 | 0.00 | 0.00 | 0.00 | 1008.4 | ||
| 20260505094214 | -17 | 0.0 | 0.0 | 0.00 | 0.00 | 0.00 | 1008.6 | ||
| 20260505093711 | -17 | 0.0 | 0.0 | 0.00 | 0.00 | 0.00 | 1008.3 | ||
| 20260505093208 | -17 | 0.0 | 0.0 | 0.00 | 0.00 | 0.00 | 1008.1 | ||
| 20260505092705 | -17 | 0.0 | 0.0 | 0.00 | 0.00 | 0.00 | 1008.1 | ||
| 20260505092204 | -17 | 0.0 | 0.0 | 0.00 | 0.00 | 0.00 | 1008.3 | ||
| 20260505091700 | -17 | 0.0 | 0.0 | 0.00 | 0.00 | 0.00 | 1007.7 | ||
| 20260505091158 | 8 | 27 | 1.6 | 1.6 | 0.13 | 0.05 | 0.05 | 84 | 1007.6 |
| 20260505090655 | 8 | 27 | 1.6 | 1.6 | 0.13 | 0.05 | 0.05 | 84 | 1007.7 |
| 20260505090154 | -17 | 0.0 | 0.0 | 0.00 | 0.00 | 0.00 | 1007.3 | ||
| 20260505085651 | -17 | 0.0 | 0.0 | 0.00 | 0.00 | 0.00 | 1007.4 | ||
| 20260505085149 | -17 | 0.0 | 0.0 | 0.00 | 0.00 | 0.00 | 1007.2 | ||
| 20260505084646 | -17 | 0.0 | 0.0 | 0.00 | 0.00 | 0.00 | 1007.2 | ||
| 20260505084145 | -17 | 0.0 | 0.0 | 0.00 | 0.00 | 0.00 | 1007.3 | ||
| 20260505083642 | -17 | 0.0 | 0.0 | 0.00 | 0.00 | 0.00 | 1007.5 | ||
| 20260505083138 | -17 | 0.0 | 0.0 | 0.00 | 0.00 | 0.00 | 1007.2 | ||
| 20260505082634 | -17 | 0.0 | 0.0 | 0.00 | 0.00 | 0.00 | 1007.3 | ||
| 20260505082131 | -17 | 0.0 | 0.0 | 0.00 | 0.00 | 0.00 | 1007.3 | ||
| 20260505081627 | -17 | 0.0 | 0.0 | 0.00 | 0.00 | 0.00 | 1007.3 | ||
| 20260505081125 | -17 | 0.0 | 0.0 | 0.00 | 0.00 | 0.00 | 1007.4 | ||
| 20260505080621 | -17 | 0.0 | 0.0 | 0.00 | 0.00 | 0.00 | 1006.7 | ||
| 20260505080117 | -17 | 0.0 | 0.0 | 0.00 | 0.00 | 0.00 | 1006.4 | ||
| 20260505075614 | -17 | 0.0 | 0.0 | 0.00 | 0.00 | 0.00 | 1006.8 | ||
| 20260505075111 | -17 | 0.0 | 0.0 | 0.00 | 0.00 | 0.00 | 1006.7 | ||
| 20260505074607 | -17 | 0.0 | 0.0 | 0.00 | 0.00 | 0.00 | 1006.9 | ||
| 20260505074105 | 8 | 32 | 0.0 | 0.0 | 0.00 | 0.03 | 0.03 | 85 | 1006.8 |
| 20260505073602 | 8 | 32 | 0.0 | 0.0 | 0.00 | 0.03 | 0.03 | 85 | 1006.7 |
| 20260505073100 | 8 | 32 | 0.0 | 0.0 | 0.00 | 0.03 | 0.03 | 85 | 1006.8 |
| 20260505072555 | 8 | 32 | 0.0 | 0.0 | 0.00 | 0.03 | 0.03 | 85 | 1006.8 |
| 20260505072052 | 8 | 31 | 0.0 | 0.0 | 0.00 | 0.03 | 0.03 | 87 | 1007.2 |
| 20260505071548 | 8 | 31 | 0.0 | 0.0 | 0.00 | 0.03 | 0.03 | 86 | 1006.7 |
| 20260505071046 | 8 | 31 | 0.0 | 0.0 | 0.00 | 0.03 | 0.03 | 84 | 1006.6 |
| 20260505070543 | 8 | 31 | 0.0 | 0.0 | 0.00 | 0.03 | 0.03 | 82 | 1006.8 |
| 20260505070039 | 8 | 32 | 0.0 | 0.0 | 0.00 | 0.03 | 0.03 | 80 | 1006.8 |
| 20260505065535 | 8 | 32 | 0.0 | 0.0 | 0.18 | 0.03 | 0.03 | 79 | 1006.8 |
| 20260505065032 | 8 | 32 | 0.0 | 0.0 | 0.18 | 0.03 | 0.03 | 76 | 1006.5 |
| 20260505064529 | -17 | 0.0 | 0.0 | 0.00 | 0.00 | 0.00 | 1006.6 | ||
| 20260505064027 | -17 | 0.0 | 0.0 | 0.00 | 0.00 | 0.00 | 1006.6 | ||
| 20260505063524 | 10 | 32 | 0.0 | 1.6 | 0.00 | 0.00 | 0.00 | 67 | 1006.5 |
| 20260505063020 | 10 | 32 | 0.0 | 1.6 | 0.00 | 0.00 | 0.00 | 67 | 1007.2 |
| 20260505062517 | 10 | 32 | 0.0 | 1.6 | 0.00 | 0.00 | 0.00 | 67 | 1006.5 |
| 20260505062014 | 10 | 17 | 0.0 | 1.6 | 0.00 | 0.00 | 0.00 | 63 | 1006.6 |
| 20260505061512 | 10 | 5 | 1.6 | 3.2 | 0.00 | 0.00 | 0.00 | 62 | 1006.9 |
| 20260505061009 | 10 | 2 | 0.0 | 0.0 | 0.00 | 0.00 | 0.00 | 62 | 1007.5 |
| 20260505060506 | 10 | 356 | 3.2 | 3.2 | 0.00 | 0.00 | 0.00 | 61 | 1007.2 |
| 20260505060003 | 10 | 356 | 3.2 | 3.2 | 0.00 | 0.00 | 0.00 | 61 | 1006.9 |
| 20260505055458 | 10 | 28 | 0.0 | 1.6 | 0.00 | 0.00 | 0.00 | 60 | 1006.8 |
| 20260505054955 | 10 | 30 | 1.6 | 3.2 | 0.00 | 0.00 | 0.00 | 60 | 1007.0 |
| 20260505054453 | 10 | 29 | 0.0 | 1.6 | 0.00 | 0.00 | 0.00 | 60 | 1007.0 |
| 20260505053950 | 10 | 42 | 0.0 | 1.6 | 0.00 | 0.00 | 0.00 | 60 | 1007.0 |
| 20260505053447 | 10 | 38 | 3.2 | 4.8 | 0.00 | 0.00 | 0.00 | 60 | 1006.8 |
| 20260505052944 | 10 | 8 | 1.6 | 1.6 | 0.00 | 0.00 | 0.00 | 60 | 1006.7 |
| 20260505052441 | 10 | 318 | 1.6 | 4.8 | 0.00 | 0.00 | 0.00 | 59 | 1006.7 |
| 20260505051938 | 10 | 65 | 8.0 | 11.3 | 0.00 | 0.00 | 0.00 | 58 | 1006.3 |
| 20260505051435 | 10 | 27 | 3.2 | 3.2 | 0.00 | 0.00 | 0.00 | 60 | 1006.3 |
| 20260505050933 | 11 | 34 | 1.6 | 3.2 | 0.00 | 0.00 | 0.00 | 59 | 1006.3 |
| 20260505050431 | 11 | 19 | 1.6 | 1.6 | 0.00 | 0.00 | 0.00 | 60 | 1006.7 |
| 20260505041359 | 12 | 331 | 3.2 | 8.0 | 0.00 | 0.00 | 0.00 | 44 | 1007.1 |
| 20260505040856 | 12 | 39 | 3.2 | 3.2 | 0.00 | 0.00 | 0.00 | 43 | 1007.2 |
| 20260505040354 | 13 | 11 | 1.6 | 1.6 | 0.00 | 0.00 | 0.00 | 43 | 1006.9 |
| 20260505035850 | 13 | 343 | 8.0 | 9.7 | 0.00 | 0.00 | 0.00 | 42 | 1006.8 |
| 20260505035346 | 13 | 1 | 1.6 | 1.6 | 0.00 | 0.00 | 0.00 | 42 | 1006.8 |
| 20260505034843 | 13 | 321 | 4.8 | 4.8 | 0.00 | 0.00 | 0.00 | 42 | 1006.3 |
| 20260505034340 | 13 | 330 | 1.6 | 1.6 | 0.00 | 0.00 | 0.00 | 42 | 1006.4 |
| 20260505033837 | 13 | 48 | 1.6 | 3.2 | 0.00 | 0.00 | 0.00 | 42 | 1006.4 |
| 20260505033334 | 13 | 47 | 4.8 | 8.0 | 0.00 | 0.00 | 0.00 | 42 | 1006.5 |
| 20260505032832 | 13 | 357 | 9.7 | 16.1 | 0.00 | 0.00 | 0.00 | 42 | 1006.4 |
| 20260505032328 | 13 | 347 | 1.6 | 3.2 | 0.00 | 0.00 | 0.00 | 42 | 1005.8 |
| 20260505031825 | 13 | 1 | 6.4 | 11.3 | 0.00 | 0.00 | 0.00 | 41 | 1006.0 |
| 20260505031322 | 13 | 57 | 4.8 | 8.0 | 0.00 | 0.00 | 0.00 | 41 | 1006.1 |
| 20260505030819 | 13 | 350 | 1.6 | 1.6 | 0.00 | 0.00 | 0.00 | 43 | 1005.9 |
| 20260505030315 | 13 | 325 | 8.0 | 11.3 | 0.00 | 0.00 | 0.00 | 42 | 1005.8 |
| 20260505025811 | 13 | 60 | 1.6 | 3.2 | 0.00 | 0.00 | 0.00 | 43 | 1005.9 |
| 20260505025309 | 13 | 329 | 4.8 | 4.8 | 0.00 | 0.00 | 0.00 | 42 | 1005.8 |
| 20260505024807 | 13 | 295 | 8.0 | 12.9 | 0.00 | 0.00 | 0.00 | 41 | 1005.8 |
| 20260505024304 | 13 | 56 | 4.8 | 4.8 | 0.00 | 0.00 | 0.00 | 41 | 1005.7 |
| 20260505023801 | 13 | 289 | 8.0 | 12.9 | 0.00 | 0.00 | 0.00 | 41 | 1005.4 |
| 20260505023258 | 13 | 350 | 12.9 | 16.1 | 0.00 | 0.00 | 0.00 | 40 | 1005.4 |
| 20260505022755 | 14 | 348 | 6.4 | 9.7 | 0.00 | 0.00 | 0.00 | 40 | 1005.4 |
| 20260505022252 | 14 | 315 | 6.4 | 11.3 | 0.00 | 0.00 | 0.00 | 40 | 1004.8 |
| 20260505021749 | 14 | 295 | 4.8 | 9.7 | 0.00 | 0.00 | 0.00 | 41 | 1004.8 |
| 20260505021246 | 14 | 41 | 4.8 | 8.0 | 0.00 | 0.00 | 0.00 | 42 | 1004.7 |
| 20260505020742 | 14 | 29 | 3.2 | 3.2 | 0.00 | 0.00 | 0.00 | 42 | 1004.7 |
| 20260505020237 | 15 | 19 | 3.2 | 4.8 | 0.00 | 0.00 | 0.00 | 42 | 1004.3 |
| 20260505015735 | 15 | 353 | 9.7 | 16.1 | 0.00 | 0.00 | 0.00 | 42 | 1004.5 |
| 20260505015231 | 15 | 351 | 4.8 | 8.0 | 0.00 | 0.00 | 0.00 | 41 | 1004.6 |
| 20260505014728 | 15 | 320 | 1.6 | 1.6 | 0.00 | 0.00 | 0.00 | 41 | 1004.4 |
| 20260505014226 | 15 | 354 | 3.2 | 4.8 | 0.00 | 0.00 | 0.00 | 40 | 1004.0 |
| 20260505013722 | 15 | 317 | 6.4 | 9.7 | 0.00 | 0.00 | 0.00 | 39 | 1003.9 |
| 20260505013219 | 16 | 14 | 0.0 | 1.6 | 0.00 | 0.00 | 0.00 | 38 | 1003.8 |
| 20260505012718 | 16 | 18 | 9.7 | 14.5 | 0.00 | 0.00 | 0.00 | 37 | 1003.7 |
| 20260505012215 | 16 | 330 | 8.0 | 9.7 | 0.00 | 0.00 | 0.00 | 37 | 1003.8 |
| 20260505011710 | 16 | 339 | 3.2 | 3.2 | 0.00 | 0.00 | 0.00 | 37 | 1003.8 |
| 20260505011208 | 16 | 330 | 14.5 | 24.1 | 0.00 | 0.00 | 0.00 | 36 | 1003.6 |
| 20260505010703 | 17 | 33 | 4.8 | 4.8 | 0.00 | 0.00 | 0.00 | 35 | 1003.7 |
| 20260505010200 | 17 | 50 | 8.0 | 11.3 | 0.00 | 0.00 | 0.00 | 35 | 1003.4 |
| 20260505005656 | 17 | 303 | 9.7 | 17.7 | 0.00 | 0.00 | 0.00 | 34 | 1003.3 |
| 20260505005153 | 17 | 189 | 9.7 | 14.5 | 0.00 | 0.00 | 0.00 | 33 | 1003.1 |
| 20260505004650 | 18 | 340 | 6.4 | 8.0 | 0.00 | 0.00 | 0.00 | 33 | 1003.0 |
| 20260505004147 | 18 | 288 | 8.0 | 11.3 | 0.00 | 0.00 | 0.00 | 33 | 1003.1 |
| 20260505003644 | 18 | 293 | 8.0 | 14.5 | 0.00 | 0.00 | 0.00 | 33 | 1003.2 |
| 20260505003142 | 19 | 308 | 6.4 | 8.0 | 0.00 | 0.00 | 0.00 | 32 | 1002.9 |
| 20260505002637 | 19 | 334 | 6.4 | 11.3 | 0.00 | 0.00 | 0.00 | 32 | 1002.7 |
| 20260505002136 | 20 | 308 | 4.8 | 8.0 | 0.00 | 0.00 | 0.00 | 32 | 1002.7 |
| 20260505001632 | 20 | 303 | 9.7 | 22.5 | 0.00 | 0.00 | 0.00 | 31 | 1002.9 |
| 20260505001130 | 20 | 252 | 8.0 | 11.3 | 0.00 | 0.00 | 0.00 | 32 | 1002.7 |
| 20260505000627 | 20 | 40 | 1.6 | 3.2 | 0.00 | 0.00 | 0.00 | 32 | 1002.5 |
| 20260505000125 | 20 | 284 | 3.2 | 8.0 | 0.00 | 0.00 | 0.00 | 31 | 1002.3 |
| 20260504235621 | 20 | 281 | 3.2 | 4.8 | 0.00 | 0.00 | 0.00 | 32 | 1002.6 |
| 20260504235118 | 20 | 27 | 3.2 | 3.2 | 0.00 | 0.00 | 0.00 | 31 | 1002.5 |
| 20260504234615 | 21 | 309 | 4.8 | 4.8 | 0.00 | 0.00 | 0.00 | 31 | 1002.7 |
| 20260504234112 | 21 | 311 | 8.0 | 14.5 | 0.00 | 0.00 | 0.00 | 30 | 1002.3 |
| 20260504233608 | 21 | 316 | 6.4 | 14.5 | 0.00 | 0.00 | 0.00 | 30 | 1002.4 |
| 20260504233104 | 21 | 350 | 3.2 | 4.8 | 0.00 | 0.00 | 0.00 | 30 | 1002.6 |
| 20260504232602 | 21 | 325 | 6.4 | 9.7 | 0.00 | 0.00 | 0.00 | 30 | 1002.2 |
| 20260504232059 | 21 | 343 | 8.0 | 11.3 | 0.00 | 0.00 | 0.00 | 30 | 1002.1 |
| 20260504231555 | 22 | 26 | 4.8 | 4.8 | 0.00 | 0.00 | 0.00 | 30 | 1002.0 |
| 20260504231051 | 22 | 281 | 4.8 | 4.8 | 0.00 | 0.00 | 0.00 | 30 | 1001.9 |
| 20260504230547 | 22 | 355 | 6.4 | 9.7 | 0.00 | 0.00 | 0.00 | 29 | 1001.6 |
| 20260504230047 | 22 | 343 | 8.0 | 16.1 | 0.00 | 0.00 | 0.00 | 29 | 1001.6 |
| 20260504225543 | 22 | 329 | 3.2 | 3.2 | 0.00 | 0.00 | 0.00 | 29 | 1001.6 |
| 20260504225041 | 22 | 70 | 3.2 | 4.8 | 0.00 | 0.00 | 0.00 | 29 | 1001.5 |
| 20260504224537 | 23 | 307 | 6.4 | 14.5 | 0.00 | 0.00 | 0.00 | 29 | 1001.2 |
| 20260504224034 | 23 | 304 | 8.0 | 12.9 | 0.00 | 0.00 | 0.00 | 29 | 1001.2 |
| 20260504223531 | 23 | 11 | 6.4 | 14.5 | 0.00 | 0.00 | 0.00 | 29 | 1001.1 |
| 20260504223027 | 23 | 327 | 8.0 | 14.5 | 0.00 | 0.00 | 0.00 | 28 | 1000.9 |
| 20260504222524 | 23 | 321 | 4.8 | 9.7 | 0.00 | 0.00 | 0.00 | 28 | 1000.8 |
| 20260504222021 | 23 | 315 | 4.8 | 11.3 | 0.00 | 0.00 | 0.00 | 28 | 1000.7 |
| 20260504221518 | 23 | 344 | 3.2 | 8.0 | 0.00 | 0.00 | 0.00 | 29 | 1000.3 |
| 20260504221015 | 24 | 18 | 11.3 | 17.7 | 0.00 | 0.00 | 0.00 | 27 | 1000.3 |
| 20260504220512 | 24 | 327 | 1.6 | 1.6 | 0.00 | 0.00 | 0.00 | 29 | 1000.5 |
| 20260504220009 | 25 | 304 | 4.8 | 12.9 | 0.00 | 0.00 | 0.00 | 29 | 1000.3 |
| 20260504215505 | 25 | 356 | 3.2 | 3.2 | 0.00 | 0.00 | 0.00 | 28 | 1000.3 |
| 20260504215003 | 25 | 250 | 8.0 | 12.9 | 0.00 | 0.00 | 0.00 | 28 | 1000.2 |
| 20260504214458 | 25 | 12 | 3.2 | 4.8 | 0.00 | 0.00 | 0.00 | 30 | 1000.2 |
| 20260504213955 | 25 | 338 | 3.2 | 4.8 | 0.00 | 0.00 | 0.00 | 29 | 1000.3 |
| 20260504213451 | 25 | 333 | 3.2 | 3.2 | 0.00 | 0.00 | 0.00 | 29 | 1000.1 |
| 20260504212949 | 25 | 56 | 3.2 | 4.8 | 0.00 | 0.00 | 0.00 | 31 | 1000.0 |
| 20260504212444 | 25 | 323 | 1.6 | 1.6 | 0.00 | 0.00 | 0.00 | 31 | 1000.5 |
| 20260504211942 | 25 | 352 | 3.2 | 3.2 | 0.00 | 0.00 | 0.00 | 30 | 1000.2 |
| 20260504211438 | 25 | 10 | 1.6 | 3.2 | 0.00 | 0.00 | 0.00 | 32 | 1000.0 |
| 20260504210936 | 25 | 234 | 1.6 | 4.8 | 0.00 | 0.00 | 0.00 | 31 | 1000.0 |
| 20260504210433 | 25 | 295 | 3.2 | 3.2 | 0.00 | 0.00 | 0.00 | 32 | 999.9 |
| 20260504205930 | 25 | 314 | 1.6 | 3.2 | 0.00 | 0.00 | 0.00 | 31 | 1000.0 |
| 20260504205427 | 25 | 335 | 8.0 | 11.3 | 0.00 | 0.00 | 0.00 | 31 | 999.9 |
| 20260504204925 | 25 | 351 | 1.6 | 3.2 | 0.00 | 0.00 | 0.00 | 31 | 999.8 |
| 20260504204423 | 25 | 4 | 0.0 | 1.6 | 0.00 | 0.00 | 0.00 | 34 | 999.9 |
| 20260504203922 | 25 | 357 | 1.6 | 1.6 | 0.00 | 0.00 | 0.00 | 31 | 999.9 |
| 20260504203420 | 25 | 42 | 1.6 | 3.2 | 0.00 | 0.00 | 0.00 | 32 | 999.9 |
| 20260504202915 | 26 | 57 | 4.8 | 9.7 | 0.00 | 0.00 | 0.00 | 32 | 1000.0 |
| 20260504202412 | 26 | 339 | 1.6 | 3.2 | 0.00 | 0.00 | 0.00 | 34 | 999.8 |
| 20260504201909 | 26 | 330 | 3.2 | 11.3 | 0.00 | 0.00 | 0.00 | 34 | 1000.0 |
| 20260504201406 | 26 | 262 | 6.4 | 9.7 | 0.00 | 0.00 | 0.00 | 33 | 1000.0 |
| 20260504200903 | 27 | 289 | 1.6 | 1.6 | 0.00 | 0.00 | 0.00 | 35 | 999.7 |
| 20260504200400 | 27 | 328 | 0.0 | 1.6 | 0.00 | 0.00 | 0.00 | 34 | 999.7 |
| 20260504195857 | 26 | 105 | 0.0 | 0.0 | 0.00 | 0.00 | 0.00 | 34 | 999.8 |
| 20260504195352 | 26 | 7 | 0.0 | 0.0 | 0.00 | 0.00 | 0.00 | 33 | 999.9 |
| 20260504194849 | 26 | 73 | 0.0 | 0.0 | 0.00 | 0.00 | 0.00 | 32 | 999.8 |
| 20260504194345 | 27 | 18 | 4.8 | 4.8 | 0.00 | 0.00 | 0.00 | 32 | 999.9 |
| 20260504193841 | 27 | 351 | 1.6 | 1.6 | 0.00 | 0.00 | 0.00 | 35 | 999.7 |
| 20260504193339 | 27 | 343 | 3.2 | 3.2 | 0.00 | 0.00 | 0.00 | 32 | 999.5 |
| 20260504192838 | 27 | 304 | 1.6 | 3.2 | 0.00 | 0.00 | 0.00 | 32 | 999.8 |
| 20260504192335 | 27 | 305 | 11.3 | 16.1 | 0.00 | 0.00 | 0.00 | 31 | 999.7 |
| 20260504191833 | 27 | 163 | 3.2 | 4.8 | 0.00 | 0.00 | 0.00 | 31 | 999.3 |
| 20260504191330 | 27 | 326 | 1.6 | 4.8 | 0.00 | 0.00 | 0.00 | 31 | 999.7 |
| 20260504190826 | 27 | 203 | 3.2 | 4.8 | 0.00 | 0.00 | 0.00 | 33 | 999.5 |
| 20260504190322 | 27 | 328 | 3.2 | 3.2 | 0.00 | 0.00 | 0.00 | 31 | 999.3 |
| 20260504185819 | 27 | 287 | 4.8 | 8.0 | 0.00 | 0.00 | 0.00 | 28 | 999.4 |
| 20260504185316 | 27 | 16 | 11.3 | 14.5 | 0.00 | 0.00 | 0.00 | 30 | 999.3 |
| 20260504184812 | 27 | 324 | 4.8 | 8.0 | 0.00 | 0.00 | 0.00 | 29 | 999.4 |
| 20260504184308 | 28 | 354 | 8.0 | 16.1 | 0.00 | 0.00 | 0.00 | 29 | 999.2 |
| 20260504183803 | 28 | 216 | 1.6 | 1.6 | 0.00 | 0.00 | 0.00 | 30 | 999.4 |
| 20260504183301 | 28 | 350 | 0.0 | 1.6 | 0.00 | 0.00 | 0.00 | 32 | 999.2 |
| 20260504182759 | 28 | 27 | 1.6 | 3.2 | 0.00 | 0.00 | 0.00 | 28 | 999.0 |
| 20260504182256 | 28 | 301 | 0.0 | 1.6 | 0.00 | 0.00 | 0.00 | 30 | 999.3 |
| 20260504181753 | 28 | 288 | 1.6 | 3.2 | 0.00 | 0.00 | 0.00 | 32 | 998.9 |
| 20260504181250 | 27 | 13 | 1.6 | 3.2 | 0.00 | 0.00 | 0.00 | 30 | 999.3 |
| 20260504180749 | 27 | 13 | 0.0 | 0.0 | 0.00 | 0.00 | 0.00 | 30 | 999.2 |
| 20260504180248 | 27 | 318 | 4.8 | 9.7 | 0.00 | 0.00 | 0.00 | 31 | 999.4 |
| 20260504175745 | 27 | 27 | 6.4 | 9.7 | 0.00 | 0.00 | 0.00 | 28 | 999.6 |
| 20260504175242 | 27 | 340 | 3.2 | 3.2 | 0.00 | 0.00 | 0.00 | 31 | 999.5 |
| 20260504174739 | 27 | 312 | 1.6 | 3.2 | 0.00 | 0.00 | 0.00 | 32 | 999.6 |
| 20260504174237 | 26 | 269 | 4.8 | 8.0 | 0.00 | 0.00 | 0.00 | 29 | 999.7 |
| 20260504173733 | 26 | 318 | 3.2 | 3.2 | 0.00 | 0.00 | 0.00 | 30 | 999.6 |
| 20260504173231 | 26 | 335 | 1.6 | 3.2 | 0.00 | 0.00 | 0.00 | 32 | 999.7 |
| 20260504172727 | 26 | 309 | 3.2 | 3.2 | 0.00 | 0.00 | 0.00 | 33 | 999.5 |
| 20260504172224 | 26 | 7 | 0.0 | 1.6 | 0.00 | 0.00 | 0.00 | 34 | 999.6 |
| 20260504171720 | 25 | 11 | 1.6 | 1.6 | 0.00 | 0.00 | 0.00 | 32 | 999.4 |
| 20260504171217 | 25 | 0 | 1.6 | 3.2 | 0.00 | 0.00 | 0.00 | 33 | 999.6 |
| 20260504170714 | 25 | 341 | 1.6 | 1.6 | 0.00 | 0.00 | 0.00 | 33 | 999.6 |
| 20260504170212 | 24 | 359 | 0.0 | 1.6 | 0.00 | 0.00 | 0.00 | 35 | 999.6 |
| 20260504160130 | 21 | 351 | 0.0 | 1.6 | 0.00 | 0.00 | 0.00 | 43 | 999.8 |
| 20260504151057 | 19 | 83 | 0.0 | 1.6 | 0.00 | 0.00 | 0.00 | 50 | 999.5 |
| 20260504150555 | 19 | 70 | 0.0 | 0.0 | 0.00 | 0.00 | 0.00 | 48 | 1000.0 |
| 20260504141020 | 16 | 13 | 0.0 | 0.0 | 0.00 | 0.00 | 0.00 | 52 | 1000.1 |
| 20260504140517 | 16 | 12 | 0.0 | 0.0 | 0.00 | 0.00 | 0.00 | 54 | 1000.3 |
| 20260504130441 | -17 | 0.0 | 0.0 | 0.00 | 0.00 | 0.00 | 999.7 |